sensor_id;sensor_type;location;lat;lon;timestamp;P1;durP1;ratioP1;P2;durP2;ratioP2
35606;SDS011;21729;58.392;15.656;2022-10-31T00:00:30;5.55;;;1.88;;
35606;SDS011;21729;58.392;15.656;2022-10-31T00:02:57;5.00;;;1.80;;
35606;SDS011;21729;58.392;15.656;2022-10-31T00:05:25;4.63;;;1.90;;
35606;SDS011;21729;58.392;15.656;2022-10-31T00:07:52;4.38;;;1.90;;
35606;SDS011;21729;58.392;15.656;2022-10-31T00:10:20;4.88;;;1.90;;
35606;SDS011;21729;58.392;15.656;2022-10-31T00:12:47;2.85;;;1.77;;
35606;SDS011;21729;58.392;15.656;2022-10-31T00:15:14;7.07;;;2.28;;
35606;SDS011;21729;58.392;15.656;2022-10-31T00:17:41;4.28;;;1.90;;
35606;SDS011;21729;58.392;15.656;2022-10-31T00:20:09;4.50;;;1.83;;
35606;SDS011;21729;58.392;15.656;2022-10-31T00:22:38;6.22;;;1.88;;
35606;SDS011;21729;58.392;15.656;2022-10-31T00:25:05;6.40;;;1.90;;
35606;SDS011;21729;58.392;15.656;2022-10-31T00:27:32;3.30;;;2.08;;
35606;SDS011;21729;58.392;15.656;2022-10-31T00:29:59;6.53;;;1.92;;
35606;SDS011;21729;58.392;15.656;2022-10-31T00:32:28;8.35;;;2.35;;
35606;SDS011;21729;58.392;15.656;2022-10-31T00:34:55;5.05;;;2.00;;
35606;SDS011;21729;58.392;15.656;2022-10-31T00:37:22;4.57;;;1.75;;
35606;SDS011;21729;58.392;15.656;2022-10-31T00:39:51;8.00;;;2.15;;
35606;SDS011;21729;58.392;15.656;2022-10-31T00:42:18;6.15;;;1.92;;
35606;SDS011;21729;58.392;15.656;2022-10-31T00:44:45;5.65;;;2.25;;
35606;SDS011;21729;58.392;15.656;2022-10-31T00:47:12;8.23;;;2.35;;
35606;SDS011;21729;58.392;15.656;2022-10-31T00:49:39;6.43;;;2.00;;
35606;SDS011;21729;58.392;15.656;2022-10-31T00:52:06;2.45;;;1.90;;
35606;SDS011;21729;58.392;15.656;2022-10-31T00:54:34;5.55;;;1.90;;
35606;SDS011;21729;58.392;15.656;2022-10-31T00:57:02;5.47;;;2.10;;
35606;SDS011;21729;58.392;15.656;2022-10-31T00:59:29;5.93;;;2.20;;
35606;SDS011;21729;58.392;15.656;2022-10-31T01:01:56;3.78;;;2.00;;
35606;SDS011;21729;58.392;15.656;2022-10-31T01:04:23;4.53;;;1.90;;
35606;SDS011;21729;58.392;15.656;2022-10-31T01:06:50;3.78;;;1.90;;
35606;SDS011;21729;58.392;15.656;2022-10-31T01:09:18;5.18;;;1.90;;
35606;SDS011;21729;58.392;15.656;2022-10-31T01:11:45;5.35;;;1.90;;
35606;SDS011;21729;58.392;15.656;2022-10-31T01:14:13;6.32;;;2.00;;
35606;SDS011;21729;58.392;15.656;2022-10-31T01:16:40;7.85;;;1.95;;
35606;SDS011;21729;58.392;15.656;2022-10-31T01:19:08;5.50;;;1.90;;
35606;SDS011;21729;58.392;15.656;2022-10-31T01:21:35;5.33;;;1.73;;
35606;SDS011;21729;58.392;15.656;2022-10-31T01:24:02;4.10;;;1.70;;
35606;SDS011;21729;58.392;15.656;2022-10-31T01:26:30;3.60;;;1.83;;
35606;SDS011;21729;58.392;15.656;2022-10-31T01:28:58;4.60;;;2.00;;
35606;SDS011;21729;58.392;15.656;2022-10-31T01:31:29;4.68;;;2.05;;
35606;SDS011;21729;58.392;15.656;2022-10-31T01:33:57;4.22;;;1.75;;
35606;SDS011;21729;58.392;15.656;2022-10-31T01:36:25;5.30;;;1.70;;
35606;SDS011;21729;58.392;15.656;2022-10-31T01:38:56;4.80;;;1.70;;
35606;SDS011;21729;58.392;15.656;2022-10-31T01:41:25;5.93;;;2.17;;
35606;SDS011;21729;58.392;15.656;2022-10-31T01:43:55;4.90;;;2.20;;
35606;SDS011;21729;58.392;15.656;2022-10-31T01:46:24;7.00;;;1.73;;
35606;SDS011;21729;58.392;15.656;2022-10-31T01:48:56;4.30;;;1.73;;
35606;SDS011;21729;58.392;15.656;2022-10-31T01:51:27;6.40;;;1.80;;
35606;SDS011;21729;58.392;15.656;2022-10-31T01:53:58;4.30;;;1.80;;
35606;SDS011;21729;58.392;15.656;2022-10-31T01:56:28;3.65;;;1.77;;
35606;SDS011;21729;58.392;15.656;2022-10-31T01:58:55;3.47;;;1.63;;
35606;SDS011;21729;58.392;15.656;2022-10-31T02:01:25;7.50;;;1.93;;
35606;SDS011;21729;58.392;15.656;2022-10-31T02:03:52;4.25;;;1.63;;
35606;SDS011;21729;58.392;15.656;2022-10-31T02:06:25;2.90;;;1.70;;
35606;SDS011;21729;58.392;15.656;2022-10-31T02:08:57;4.47;;;2.10;;
35606;SDS011;21729;58.392;15.656;2022-10-31T02:11:25;6.68;;;2.20;;
35606;SDS011;21729;58.392;15.656;2022-10-31T02:13:54;4.47;;;1.80;;
35606;SDS011;21729;58.392;15.656;2022-10-31T02:16:22;3.90;;;1.75;;
35606;SDS011;21729;58.392;15.656;2022-10-31T02:18:49;3.67;;;1.63;;
35606;SDS011;21729;58.392;15.656;2022-10-31T02:21:16;4.70;;;1.75;;
35606;SDS011;21729;58.392;15.656;2022-10-31T02:26:59;4.63;;;1.90;;
35606;SDS011;21729;58.392;15.656;2022-10-31T02:29:52;3.38;;;1.80;;
35606;SDS011;21729;58.392;15.656;2022-10-31T02:32:48;3.85;;;1.60;;
35606;SDS011;21729;58.392;15.656;2022-10-31T02:35:36;5.20;;;1.90;;
35606;SDS011;21729;58.392;15.656;2022-10-31T02:38:12;5.05;;;1.75;;
35606;SDS011;21729;58.392;15.656;2022-10-31T02:40:51;3.88;;;1.90;;
35606;SDS011;21729;58.392;15.656;2022-10-31T02:43:27;5.87;;;2.00;;
35606;SDS011;21729;58.392;15.656;2022-10-31T02:46:05;3.45;;;2.00;;
35606;SDS011;21729;58.392;15.656;2022-10-31T02:48:41;5.60;;;1.75;;
35606;SDS011;21729;58.392;15.656;2022-10-31T02:51:12;4.47;;;1.92;;
35606;SDS011;21729;58.392;15.656;2022-10-31T02:53:39;4.18;;;1.90;;
35606;SDS011;21729;58.392;15.656;2022-10-31T02:56:08;5.75;;;1.92;;
35606;SDS011;21729;58.392;15.656;2022-10-31T02:58:39;4.80;;;1.83;;
35606;SDS011;21729;58.392;15.656;2022-10-31T03:01:21;6.22;;;1.90;;
35606;SDS011;21729;58.392;15.656;2022-10-31T03:04:12;6.63;;;1.90;;
35606;SDS011;21729;58.392;15.656;2022-10-31T03:06:49;4.68;;;2.05;;
35606;SDS011;21729;58.392;15.656;2022-10-31T03:09:23;5.60;;;2.30;;
35606;SDS011;21729;58.392;15.656;2022-10-31T03:11:56;3.95;;;2.50;;
35606;SDS011;21729;58.392;15.656;2022-10-31T03:14:33;4.25;;;2.20;;
35606;SDS011;21729;58.392;15.656;2022-10-31T03:17:07;5.95;;;2.28;;
35606;SDS011;21729;58.392;15.656;2022-10-31T03:19:41;6.75;;;2.30;;
35606;SDS011;21729;58.392;15.656;2022-10-31T03:22:12;4.47;;;2.47;;
35606;SDS011;21729;58.392;15.656;2022-10-31T03:24:43;5.20;;;2.60;;
35606;SDS011;21729;58.392;15.656;2022-10-31T03:27:14;5.15;;;2.85;;
35606;SDS011;21729;58.392;15.656;2022-10-31T03:29:44;8.82;;;2.72;;
35606;SDS011;21729;58.392;15.656;2022-10-31T03:32:15;7.38;;;2.95;;
35606;SDS011;21729;58.392;15.656;2022-10-31T03:34:47;5.45;;;2.70;;
35606;SDS011;21729;58.392;15.656;2022-10-31T03:37:17;5.82;;;2.53;;
35606;SDS011;21729;58.392;15.656;2022-10-31T03:39:46;6.22;;;2.97;;
35606;SDS011;21729;58.392;15.656;2022-10-31T03:42:16;4.22;;;2.63;;
35606;SDS011;21729;58.392;15.656;2022-10-31T03:44:49;8.05;;;3.00;;
35606;SDS011;21729;58.392;15.656;2022-10-31T03:47:22;7.13;;;2.90;;
35606;SDS011;21729;58.392;15.656;2022-10-31T03:49:51;8.45;;;3.05;;
35606;SDS011;21729;58.392;15.656;2022-10-31T03:52:21;10.00;;;3.55;;
35606;SDS011;21729;58.392;15.656;2022-10-31T03:54:54;5.22;;;2.92;;
35606;SDS011;21729;58.392;15.656;2022-10-31T03:57:24;6.53;;;3.20;;
35606;SDS011;21729;58.392;15.656;2022-10-31T03:59:55;5.78;;;3.30;;
35606;SDS011;21729;58.392;15.656;2022-10-31T04:02:28;8.25;;;3.40;;
35606;SDS011;21729;58.392;15.656;2022-10-31T04:04:58;4.57;;;3.20;;
35606;SDS011;21729;58.392;15.656;2022-10-31T04:07:27;8.23;;;3.67;;
35606;SDS011;21729;58.392;15.656;2022-10-31T04:09:58;7.50;;;3.38;;
35606;SDS011;21729;58.392;15.656;2022-10-31T04:12:29;9.23;;;3.40;;
35606;SDS011;21729;58.392;15.656;2022-10-31T04:14:57;6.43;;;3.25;;
35606;SDS011;21729;58.392;15.656;2022-10-31T04:17:26;6.30;;;3.30;;
35606;SDS011;21729;58.392;15.656;2022-10-31T04:19:58;6.70;;;3.35;;
35606;SDS011;21729;58.392;15.656;2022-10-31T04:22:26;6.75;;;3.65;;
35606;SDS011;21729;58.392;15.656;2022-10-31T04:24:54;7.32;;;3.38;;
35606;SDS011;21729;58.392;15.656;2022-10-31T04:27:21;6.63;;;3.40;;
35606;SDS011;21729;58.392;15.656;2022-10-31T04:29:48;6.88;;;3.13;;
35606;SDS011;21729;58.392;15.656;2022-10-31T04:32:15;5.40;;;3.17;;
35606;SDS011;21729;58.392;15.656;2022-10-31T04:34:42;7.22;;;3.50;;
35606;SDS011;21729;58.392;15.656;2022-10-31T04:37:11;5.18;;;3.22;;
35606;SDS011;21729;58.392;15.656;2022-10-31T04:39:38;4.88;;;3.28;;
35606;SDS011;21729;58.392;15.656;2022-10-31T04:42:05;5.47;;;3.30;;
35606;SDS011;21729;58.392;15.656;2022-10-31T04:44:32;7.28;;;2.80;;
35606;SDS011;21729;58.392;15.656;2022-10-31T04:46:59;4.43;;;2.92;;
35606;SDS011;21729;58.392;15.656;2022-10-31T04:49:26;6.22;;;3.30;;
35606;SDS011;21729;58.392;15.656;2022-10-31T04:51:53;6.90;;;3.17;;
35606;SDS011;21729;58.392;15.656;2022-10-31T04:54:22;4.78;;;3.08;;
35606;SDS011;21729;58.392;15.656;2022-10-31T04:56:49;4.32;;;3.10;;
35606;SDS011;21729;58.392;15.656;2022-10-31T04:59:16;6.72;;;3.40;;
35606;SDS011;21729;58.392;15.656;2022-10-31T05:01:43;4.72;;;3.05;;
35606;SDS011;21729;58.392;15.656;2022-10-31T05:04:10;5.13;;;2.97;;
35606;SDS011;21729;58.392;15.656;2022-10-31T05:06:37;5.63;;;3.22;;
35606;SDS011;21729;58.392;15.656;2022-10-31T05:09:04;4.00;;;3.08;;
35606;SDS011;21729;58.392;15.656;2022-10-31T05:11:32;6.97;;;3.10;;
35606;SDS011;21729;58.392;15.656;2022-10-31T05:14:00;5.05;;;3.25;;
35606;SDS011;21729;58.392;15.656;2022-10-31T05:16:27;6.38;;;3.22;;
35606;SDS011;21729;58.392;15.656;2022-10-31T05:18:55;4.85;;;3.00;;
35606;SDS011;21729;58.392;15.656;2022-10-31T05:21:22;4.43;;;3.10;;
35606;SDS011;21729;58.392;15.656;2022-10-31T05:23:49;5.20;;;3.25;;
35606;SDS011;21729;58.392;15.656;2022-10-31T05:26:17;5.13;;;3.10;;
35606;SDS011;21729;58.392;15.656;2022-10-31T05:28:45;4.90;;;3.10;;
35606;SDS011;21729;58.392;15.656;2022-10-31T05:31:12;6.37;;;3.23;;
35606;SDS011;21729;58.392;15.656;2022-10-31T05:33:39;4.82;;;3.10;;
35606;SDS011;21729;58.392;15.656;2022-10-31T05:36:07;5.70;;;3.00;;
35606;SDS011;21729;58.392;15.656;2022-10-31T05:38:34;6.93;;;3.17;;
35606;SDS011;21729;58.392;15.656;2022-10-31T05:41:01;4.10;;;2.78;;
35606;SDS011;21729;58.392;15.656;2022-10-31T05:43:28;4.05;;;2.83;;
35606;SDS011;21729;58.392;15.656;2022-10-31T05:45:57;4.47;;;2.75;;
35606;SDS011;21729;58.392;15.656;2022-10-31T05:48:24;5.28;;;3.13;;
35606;SDS011;21729;58.392;15.656;2022-10-31T05:50:53;5.22;;;3.15;;
35606;SDS011;21729;58.392;15.656;2022-10-31T05:53:20;3.83;;;3.05;;
35606;SDS011;21729;58.392;15.656;2022-10-31T05:55:47;7.07;;;3.60;;
35606;SDS011;21729;58.392;15.656;2022-10-31T05:58:14;6.25;;;4.20;;
35606;SDS011;21729;58.392;15.656;2022-10-31T06:00:43;7.50;;;4.37;;
35606;SDS011;21729;58.392;15.656;2022-10-31T06:03:12;7.77;;;5.33;;
35606;SDS011;21729;58.392;15.656;2022-10-31T06:05:39;5.63;;;4.00;;
35606;SDS011;21729;58.392;15.656;2022-10-31T06:08:06;4.93;;;3.67;;
35606;SDS011;21729;58.392;15.656;2022-10-31T06:10:33;6.50;;;4.73;;
35606;SDS011;21729;58.392;15.656;2022-10-31T06:13:00;7.03;;;4.25;;
35606;SDS011;21729;58.392;15.656;2022-10-31T06:15:27;5.38;;;2.80;;
35606;SDS011;21729;58.392;15.656;2022-10-31T06:17:57;4.32;;;2.70;;
35606;SDS011;21729;58.392;15.656;2022-10-31T06:20:31;4.10;;;2.80;;
35606;SDS011;21729;58.392;15.656;2022-10-31T06:22:58;4.50;;;2.90;;
35606;SDS011;21729;58.392;15.656;2022-10-31T06:25:25;3.67;;;3.10;;
35606;SDS011;21729;58.392;15.656;2022-10-31T06:27:52;4.13;;;3.00;;
35606;SDS011;21729;58.392;15.656;2022-10-31T06:30:20;4.30;;;2.70;;
35606;SDS011;21729;58.392;15.656;2022-10-31T06:32:49;4.88;;;2.92;;
35606;SDS011;21729;58.392;15.656;2022-10-31T06:35:16;4.00;;;2.75;;
35606;SDS011;21729;58.392;15.656;2022-10-31T06:37:51;4.95;;;3.00;;
35606;SDS011;21729;58.392;15.656;2022-10-31T06:40:18;3.83;;;2.72;;
35606;SDS011;21729;58.392;15.656;2022-10-31T06:42:45;4.00;;;2.80;;
35606;SDS011;21729;58.392;15.656;2022-10-31T06:45:12;4.55;;;2.83;;
35606;SDS011;21729;58.392;15.656;2022-10-31T06:47:39;4.40;;;3.05;;
35606;SDS011;21729;58.392;15.656;2022-10-31T06:50:07;5.18;;;2.90;;
35606;SDS011;21729;58.392;15.656;2022-10-31T06:52:35;5.75;;;2.80;;
35606;SDS011;21729;58.392;15.656;2022-10-31T06:55:03;3.40;;;2.80;;
35606;SDS011;21729;58.392;15.656;2022-10-31T06:57:31;4.50;;;2.80;;
35606;SDS011;21729;58.392;15.656;2022-10-31T06:59:58;4.00;;;2.67;;
35606;SDS011;21729;58.392;15.656;2022-10-31T07:02:25;5.47;;;3.05;;
35606;SDS011;21729;58.392;15.656;2022-10-31T07:04:52;4.95;;;3.03;;
35606;SDS011;21729;58.392;15.656;2022-10-31T07:07:19;5.45;;;3.50;;
35606;SDS011;21729;58.392;15.656;2022-10-31T07:09:46;5.47;;;3.70;;
35606;SDS011;21729;58.392;15.656;2022-10-31T07:12:16;6.03;;;3.60;;
35606;SDS011;21729;58.392;15.656;2022-10-31T07:14:43;6.30;;;3.75;;
35606;SDS011;21729;58.392;15.656;2022-10-31T07:17:10;4.60;;;3.20;;
35606;SDS011;21729;58.392;15.656;2022-10-31T07:19:37;4.93;;;3.20;;
35606;SDS011;21729;58.392;15.656;2022-10-31T07:22:04;5.30;;;3.30;;
35606;SDS011;21729;58.392;15.656;2022-10-31T07:24:31;5.13;;;2.95;;
35606;SDS011;21729;58.392;15.656;2022-10-31T07:26:58;6.47;;;2.88;;
35606;SDS011;21729;58.392;15.656;2022-10-31T07:29:27;5.82;;;3.20;;
35606;SDS011;21729;58.392;15.656;2022-10-31T07:31:54;4.90;;;2.83;;
35606;SDS011;21729;58.392;15.656;2022-10-31T07:34:21;4.32;;;3.30;;
35606;SDS011;21729;58.392;15.656;2022-10-31T07:36:48;4.78;;;3.03;;
35606;SDS011;21729;58.392;15.656;2022-10-31T07:39:17;5.40;;;3.13;;
35606;SDS011;21729;58.392;15.656;2022-10-31T07:41:44;4.30;;;2.90;;
35606;SDS011;21729;58.392;15.656;2022-10-31T07:44:11;3.83;;;2.95;;
35606;SDS011;21729;58.392;15.656;2022-10-31T07:46:39;3.38;;;2.58;;
35606;SDS011;21729;58.392;15.656;2022-10-31T07:49:07;3.55;;;2.75;;
35606;SDS011;21729;58.392;15.656;2022-10-31T07:51:34;3.95;;;3.15;;
35606;SDS011;21729;58.392;15.656;2022-10-31T07:54:01;4.30;;;2.92;;
35606;SDS011;21729;58.392;15.656;2022-10-31T07:56:28;5.22;;;2.90;;
35606;SDS011;21729;58.392;15.656;2022-10-31T07:58:55;4.70;;;3.40;;
35606;SDS011;21729;58.392;15.656;2022-10-31T08:01:22;4.82;;;3.15;;
35606;SDS011;21729;58.392;15.656;2022-10-31T08:03:50;4.97;;;3.00;;
35606;SDS011;21729;58.392;15.656;2022-10-31T08:06:17;4.30;;;2.90;;
35606;SDS011;21729;58.392;15.656;2022-10-31T08:08:44;5.65;;;3.20;;
35606;SDS011;21729;58.392;15.656;2022-10-31T08:11:11;5.30;;;3.03;;
35606;SDS011;21729;58.392;15.656;2022-10-31T08:13:38;3.40;;;2.60;;
35606;SDS011;21729;58.392;15.656;2022-10-31T08:16:07;4.93;;;2.95;;
35606;SDS011;21729;58.392;15.656;2022-10-31T08:18:34;3.47;;;2.80;;
35606;SDS011;21729;58.392;15.656;2022-10-31T08:21:04;3.72;;;2.97;;
35606;SDS011;21729;58.392;15.656;2022-10-31T08:23:31;4.00;;;2.58;;
35606;SDS011;21729;58.392;15.656;2022-10-31T08:25:58;4.00;;;2.90;;
35606;SDS011;21729;58.392;15.656;2022-10-31T08:28:25;4.88;;;2.85;;
35606;SDS011;21729;58.392;15.656;2022-10-31T08:30:52;4.70;;;2.88;;
35606;SDS011;21729;58.392;15.656;2022-10-31T08:33:19;5.05;;;2.90;;
35606;SDS011;21729;58.392;15.656;2022-10-31T08:35:46;5.40;;;2.67;;
35606;SDS011;21729;58.392;15.656;2022-10-31T08:38:16;3.38;;;2.90;;
35606;SDS011;21729;58.392;15.656;2022-10-31T08:40:43;6.13;;;2.88;;
35606;SDS011;21729;58.392;15.656;2022-10-31T08:43:14;3.28;;;2.70;;
35606;SDS011;21729;58.392;15.656;2022-10-31T08:45:43;5.20;;;3.30;;
35606;SDS011;21729;58.392;15.656;2022-10-31T08:48:11;7.95;;;3.72;;
35606;SDS011;21729;58.392;15.656;2022-10-31T08:50:40;4.93;;;3.20;;
35606;SDS011;21729;58.392;15.656;2022-10-31T08:53:10;4.43;;;3.10;;
35606;SDS011;21729;58.392;15.656;2022-10-31T08:55:40;4.75;;;2.90;;
35606;SDS011;21729;58.392;15.656;2022-10-31T08:58:09;5.00;;;2.92;;
35606;SDS011;21729;58.392;15.656;2022-10-31T09:00:38;4.28;;;3.03;;
35606;SDS011;21729;58.392;15.656;2022-10-31T09:03:06;4.15;;;3.00;;
35606;SDS011;21729;58.392;15.656;2022-10-31T09:05:35;6.18;;;3.35;;
35606;SDS011;21729;58.392;15.656;2022-10-31T09:08:02;4.80;;;3.08;;
35606;SDS011;21729;58.392;15.656;2022-10-31T09:10:31;5.80;;;3.03;;
35606;SDS011;21729;58.392;15.656;2022-10-31T09:13:01;5.60;;;3.08;;
35606;SDS011;21729;58.392;15.656;2022-10-31T09:15:31;5.73;;;3.20;;
35606;SDS011;21729;58.392;15.656;2022-10-31T09:17:59;5.82;;;3.33;;
35606;SDS011;21729;58.392;15.656;2022-10-31T09:20:27;6.25;;;3.47;;
35606;SDS011;21729;58.392;15.656;2022-10-31T09:22:57;7.10;;;3.30;;
35606;SDS011;21729;58.392;15.656;2022-10-31T09:25:24;8.52;;;3.40;;
35606;SDS011;21729;58.392;15.656;2022-10-31T09:27:54;5.05;;;3.20;;
35606;SDS011;21729;58.392;15.656;2022-10-31T09:30:23;6.80;;;3.58;;
35606;SDS011;21729;58.392;15.656;2022-10-31T09:32:54;7.53;;;3.53;;
35606;SDS011;21729;58.392;15.656;2022-10-31T09:35:22;6.57;;;3.70;;
35606;SDS011;21729;58.392;15.656;2022-10-31T09:37:53;5.85;;;3.40;;
35606;SDS011;21729;58.392;15.656;2022-10-31T09:40:21;4.70;;;3.13;;
35606;SDS011;21729;58.392;15.656;2022-10-31T09:42:51;8.10;;;3.30;;
35606;SDS011;21729;58.392;15.656;2022-10-31T09:45:27;6.77;;;3.40;;
35606;SDS011;21729;58.392;15.656;2022-10-31T09:48:03;6.78;;;3.67;;
35606;SDS011;21729;58.392;15.656;2022-10-31T09:50:51;6.60;;;3.70;;
35606;SDS011;21729;58.392;15.656;2022-10-31T09:53:22;6.88;;;3.42;;
35606;SDS011;21729;58.392;15.656;2022-10-31T09:55:52;8.02;;;3.60;;
35606;SDS011;21729;58.392;15.656;2022-10-31T09:58:23;6.35;;;3.40;;
35606;SDS011;21729;58.392;15.656;2022-10-31T10:00:54;9.63;;;3.65;;
35606;SDS011;21729;58.392;15.656;2022-10-31T10:03:28;6.25;;;3.53;;
35606;SDS011;21729;58.392;15.656;2022-10-31T10:06:01;5.95;;;3.63;;
35606;SDS011;21729;58.392;15.656;2022-10-31T10:08:36;6.55;;;3.65;;
35606;SDS011;21729;58.392;15.656;2022-10-31T10:11:07;7.35;;;3.80;;
35606;SDS011;21729;58.392;15.656;2022-10-31T10:13:50;8.60;;;3.50;;
35606;SDS011;21729;58.392;15.656;2022-10-31T10:16:33;9.35;;;3.75;;
35606;SDS011;21729;58.392;15.656;2022-10-31T10:19:17;8.57;;;3.67;;
35606;SDS011;21729;58.392;15.656;2022-10-31T10:21:55;7.93;;;3.90;;
35606;SDS011;21729;58.392;15.656;2022-10-31T10:24:30;8.20;;;3.95;;
35606;SDS011;21729;58.392;15.656;2022-10-31T10:27:09;7.22;;;3.88;;
35606;SDS011;21729;58.392;15.656;2022-10-31T10:29:50;8.68;;;4.07;;
35606;SDS011;21729;58.392;15.656;2022-10-31T10:32:24;9.82;;;3.92;;
35606;SDS011;21729;58.392;15.656;2022-10-31T10:34:54;8.07;;;4.10;;
35606;SDS011;21729;58.392;15.656;2022-10-31T10:37:27;8.63;;;4.97;;
35606;SDS011;21729;58.392;15.656;2022-10-31T10:40:00;10.45;;;5.30;;
35606;SDS011;21729;58.392;15.656;2022-10-31T10:42:34;11.10;;;5.22;;
35606;SDS011;21729;58.392;15.656;2022-10-31T10:45:19;11.50;;;4.35;;
35606;SDS011;21729;58.392;15.656;2022-10-31T10:48:07;10.25;;;4.25;;
35606;SDS011;21729;58.392;15.656;2022-10-31T10:50:41;8.75;;;3.97;;
35606;SDS011;21729;58.392;15.656;2022-10-31T10:53:15;8.33;;;3.50;;
35606;SDS011;21729;58.392;15.656;2022-10-31T10:55:58;7.55;;;3.28;;
35606;SDS011;21729;58.392;15.656;2022-10-31T10:58:31;5.07;;;3.10;;
35606;SDS011;21729;58.392;15.656;2022-10-31T11:00:58;7.80;;;3.20;;
35606;SDS011;21729;58.392;15.656;2022-10-31T11:03:26;6.32;;;3.08;;
35606;SDS011;21729;58.392;15.656;2022-10-31T11:05:54;6.80;;;3.00;;
35606;SDS011;21729;58.392;15.656;2022-10-31T11:08:23;6.18;;;2.80;;
35606;SDS011;21729;58.392;15.656;2022-10-31T11:11:01;6.43;;;3.13;;
35606;SDS011;21729;58.392;15.656;2022-10-31T11:13:32;8.03;;;2.80;;
35606;SDS011;21729;58.392;15.656;2022-10-31T11:16:02;7.60;;;2.65;;
35606;SDS011;21729;58.392;15.656;2022-10-31T11:18:32;7.53;;;2.97;;
35606;SDS011;21729;58.392;15.656;2022-10-31T11:21:04;6.75;;;2.95;;
35606;SDS011;21729;58.392;15.656;2022-10-31T11:23:32;5.22;;;2.60;;
35606;SDS011;21729;58.392;15.656;2022-10-31T11:26:00;5.13;;;2.80;;
35606;SDS011;21729;58.392;15.656;2022-10-31T11:28:30;6.67;;;2.83;;
35606;SDS011;21729;58.392;15.656;2022-10-31T11:31:00;6.25;;;2.60;;
35606;SDS011;21729;58.392;15.656;2022-10-31T11:33:33;4.72;;;2.75;;
35606;SDS011;21729;58.392;15.656;2022-10-31T11:36:09;8.23;;;3.10;;
35606;SDS011;21729;58.392;15.656;2022-10-31T11:38:42;6.50;;;2.90;;
35606;SDS011;21729;58.392;15.656;2022-10-31T11:41:11;8.43;;;2.78;;
35606;SDS011;21729;58.392;15.656;2022-10-31T11:43:45;7.20;;;2.80;;
35606;SDS011;21729;58.392;15.656;2022-10-31T11:46:15;7.43;;;2.60;;
35606;SDS011;21729;58.392;15.656;2022-10-31T11:48:49;5.73;;;2.50;;
35606;SDS011;21729;58.392;15.656;2022-10-31T11:51:20;5.13;;;2.75;;
35606;SDS011;21729;58.392;15.656;2022-10-31T11:53:50;5.13;;;2.33;;
35606;SDS011;21729;58.392;15.656;2022-10-31T11:56:18;5.20;;;2.55;;
35606;SDS011;21729;58.392;15.656;2022-10-31T11:58:54;6.10;;;2.17;;
35606;SDS011;21729;58.392;15.656;2022-10-31T12:01:23;3.67;;;2.10;;
35606;SDS011;21729;58.392;15.656;2022-10-31T12:03:57;5.22;;;1.92;;
35606;SDS011;21729;58.392;15.656;2022-10-31T12:06:31;7.25;;;2.40;;
35606;SDS011;21729;58.392;15.656;2022-10-31T12:09:00;6.10;;;2.10;;
35606;SDS011;21729;58.392;15.656;2022-10-31T12:11:33;5.07;;;2.15;;
35606;SDS011;21729;58.392;15.656;2022-10-31T12:14:20;5.17;;;2.27;;
35606;SDS011;21729;58.392;15.656;2022-10-31T12:16:55;3.97;;;1.85;;
35606;SDS011;21729;58.392;15.656;2022-10-31T12:19:32;5.50;;;2.20;;
35606;SDS011;21729;58.392;15.656;2022-10-31T12:22:08;4.18;;;2.30;;
35606;SDS011;21729;58.392;15.656;2022-10-31T12:24:50;4.70;;;2.13;;
35606;SDS011;21729;58.392;15.656;2022-10-31T12:27:34;5.63;;;1.92;;
35606;SDS011;21729;58.392;15.656;2022-10-31T12:30:17;4.10;;;1.80;;
35606;SDS011;21729;58.392;15.656;2022-10-31T12:32:55;4.10;;;1.92;;
35606;SDS011;21729;58.392;15.656;2022-10-31T12:35:50;4.82;;;2.10;;
35606;SDS011;21729;58.392;15.656;2022-10-31T12:38:28;4.68;;;1.95;;
35606;SDS011;21729;58.392;15.656;2022-10-31T12:41:12;4.18;;;2.00;;
35606;SDS011;21729;58.392;15.656;2022-10-31T12:43:56;6.28;;;2.10;;
35606;SDS011;21729;58.392;15.656;2022-10-31T12:46:30;4.25;;;1.88;;
35606;SDS011;21729;58.392;15.656;2022-10-31T12:49:17;3.47;;;1.80;;
35606;SDS011;21729;58.392;15.656;2022-10-31T12:52:07;3.65;;;2.22;;
35606;SDS011;21729;58.392;15.656;2022-10-31T12:54:55;4.83;;;2.10;;
35606;SDS011;21729;58.392;15.656;2022-10-31T12:57:32;4.78;;;2.20;;
35606;SDS011;21729;58.392;15.656;2022-10-31T13:00:10;3.75;;;2.00;;
35606;SDS011;21729;58.392;15.656;2022-10-31T13:02:42;3.95;;;1.85;;
35606;SDS011;21729;58.392;15.656;2022-10-31T13:05:16;5.55;;;1.98;;
35606;SDS011;21729;58.392;15.656;2022-10-31T13:07:48;4.05;;;1.90;;
35606;SDS011;21729;58.392;15.656;2022-10-31T13:10:20;4.93;;;1.67;;
35606;SDS011;21729;58.392;15.656;2022-10-31T13:12:53;3.88;;;1.98;;
35606;SDS011;21729;58.392;15.656;2022-10-31T13:15:25;6.20;;;2.10;;
35606;SDS011;21729;58.392;15.656;2022-10-31T13:17:56;5.68;;;2.10;;
35606;SDS011;21729;58.392;15.656;2022-10-31T13:20:26;4.75;;;1.90;;
35606;SDS011;21729;58.392;15.656;2022-10-31T13:23:03;5.75;;;2.00;;
35606;SDS011;21729;58.392;15.656;2022-10-31T13:25:38;5.10;;;2.10;;
35606;SDS011;21729;58.392;15.656;2022-10-31T13:28:12;3.97;;;1.98;;
35606;SDS011;21729;58.392;15.656;2022-10-31T13:30:48;5.70;;;2.10;;
35606;SDS011;21729;58.392;15.656;2022-10-31T13:33:17;5.35;;;1.77;;
35606;SDS011;21729;58.392;15.656;2022-10-31T13:35:48;4.70;;;1.83;;
35606;SDS011;21729;58.392;15.656;2022-10-31T13:38:26;5.22;;;1.88;;
35606;SDS011;21729;58.392;15.656;2022-10-31T13:41:00;5.50;;;2.00;;
35606;SDS011;21729;58.392;15.656;2022-10-31T13:43:32;5.38;;;2.20;;
35606;SDS011;21729;58.392;15.656;2022-10-31T13:46:22;5.55;;;1.80;;
35606;SDS011;21729;58.392;15.656;2022-10-31T13:48:50;6.70;;;2.20;;
35606;SDS011;21729;58.392;15.656;2022-10-31T13:51:24;3.80;;;2.13;;
35606;SDS011;21729;58.392;15.656;2022-10-31T13:53:58;3.88;;;2.22;;
35606;SDS011;21729;58.392;15.656;2022-10-31T13:56:27;4.87;;;2.27;;
35606;SDS011;21729;58.392;15.656;2022-10-31T13:58:58;5.68;;;2.10;;
35606;SDS011;21729;58.392;15.656;2022-10-31T14:01:45;6.90;;;2.40;;
35606;SDS011;21729;58.392;15.656;2022-10-31T14:04:15;4.40;;;2.05;;
35606;SDS011;21729;58.392;15.656;2022-10-31T14:06:45;3.90;;;1.98;;
35606;SDS011;21729;58.392;15.656;2022-10-31T14:09:24;4.57;;;1.97;;
35606;SDS011;21729;58.392;15.656;2022-10-31T14:11:56;3.92;;;2.10;;
35606;SDS011;21729;58.392;15.656;2022-10-31T14:14:26;5.85;;;1.80;;
35606;SDS011;21729;58.392;15.656;2022-10-31T14:16:59;3.88;;;2.00;;
35606;SDS011;21729;58.392;15.656;2022-10-31T14:19:27;3.47;;;2.08;;
35606;SDS011;21729;58.392;15.656;2022-10-31T14:21:54;6.30;;;2.15;;
35606;SDS011;21729;58.392;15.656;2022-10-31T14:24:36;4.82;;;1.98;;
35606;SDS011;21729;58.392;15.656;2022-10-31T14:27:04;5.37;;;2.00;;
35606;SDS011;21729;58.392;15.656;2022-10-31T14:30:17;3.55;;;2.00;;
35606;SDS011;21729;58.392;15.656;2022-10-31T14:32:49;4.82;;;1.90;;
35606;SDS011;21729;58.392;15.656;2022-10-31T14:35:18;9.75;;;2.60;;
35606;SDS011;21729;58.392;15.656;2022-10-31T14:43:50;3.50;;;2.03;;
35606;SDS011;21729;58.392;15.656;2022-10-31T14:46:30;5.70;;;2.40;;
35606;SDS011;21729;58.392;15.656;2022-10-31T14:49:11;7.32;;;2.38;;
35606;SDS011;21729;58.392;15.656;2022-10-31T14:51:46;6.15;;;2.58;;
35606;SDS011;21729;58.392;15.656;2022-10-31T14:54:15;8.70;;;2.42;;
35606;SDS011;21729;58.392;15.656;2022-10-31T14:56:48;5.82;;;2.40;;
35606;SDS011;21729;58.392;15.656;2022-10-31T14:59:18;8.20;;;2.28;;
35606;SDS011;21729;58.392;15.656;2022-10-31T15:01:56;5.32;;;2.50;;
35606;SDS011;21729;58.392;15.656;2022-10-31T15:04:25;7.47;;;2.55;;